createdAt,value
2022-10-30T00:00:04.563Z,11.70
2022-10-30T00:02:33.736Z,11.90
2022-10-30T00:05:01.522Z,11.60
2022-10-30T00:07:29.285Z,11.70
2022-10-30T00:09:57.169Z,11.50
2022-10-30T00:12:25.076Z,11.50
2022-10-30T00:14:52.912Z,11.50
2022-10-30T00:24:23.841Z,11.40
2022-10-30T00:26:51.653Z,11.40
2022-10-30T00:29:19.747Z,11.20
2022-10-30T00:31:47.578Z,11.10
2022-10-30T00:34:15.922Z,11.00
2022-10-30T00:36:43.732Z,11.10
2022-10-30T00:46:58.847Z,10.90
2022-10-30T00:53:20.116Z,10.60
2022-10-30T00:55:49.464Z,10.80
2022-10-30T00:58:18.728Z,10.70
2022-10-30T01:00:49.570Z,10.40
2022-10-30T01:03:18.739Z,10.60
2022-10-30T01:05:46.893Z,10.50
2022-10-30T01:08:14.750Z,10.60
2022-10-30T01:10:42.556Z,10.70
2022-10-30T01:13:10.495Z,10.60
2022-10-30T01:15:39.340Z,10.50
2022-10-30T01:18:20.584Z,10.70
2022-10-30T01:25:33.423Z,10.30
2022-10-30T01:32:29.578Z,10.30
2022-10-30T01:38:48.547Z,10.30
2022-10-30T01:41:16.389Z,10.40
2022-10-30T01:43:44.188Z,10.30
2022-10-30T02:01:23.191Z,10.70
2022-10-30T02:03:51.174Z,10.40
2022-10-30T02:06:28.499Z,10.70
2022-10-30T02:12:36.975Z,10.50
2022-10-30T02:15:05.319Z,10.40
2022-10-30T02:17:34.515Z,10.70
2022-10-30T02:20:02.363Z,10.50
2022-10-30T02:22:31.618Z,10.40
2022-10-30T02:24:59.500Z,10.50
2022-10-30T02:27:27.333Z,10.40
2022-10-30T02:29:55.168Z,10.30
2022-10-30T02:32:23.125Z,10.20
2022-10-30T02:34:50.955Z,10.10
2022-10-30T02:37:18.772Z,9.90
2022-10-30T02:39:47.925Z,9.90
2022-10-30T02:42:15.764Z,10.00
2022-10-30T02:44:43.587Z,10.10
2022-10-30T02:47:11.415Z,9.70
2022-10-30T02:49:39.239Z,9.70
2022-10-30T02:52:08.044Z,9.30
2022-10-30T02:54:35.874Z,9.30
2022-10-30T02:57:05.128Z,9.40
2022-10-30T02:59:32.957Z,9.30
2022-10-30T03:02:01.027Z,9.60
2022-10-30T03:04:28.968Z,9.80
2022-10-30T03:06:56.810Z,9.80
2022-10-30T03:09:24.638Z,9.70
2022-10-30T03:11:52.458Z,9.60
2022-10-30T03:15:13.574Z,10.00
2022-10-30T03:17:42.773Z,10.40
2022-10-30T03:30:48.788Z,10.40
2022-10-30T03:33:18.096Z,10.30
2022-10-30T03:39:26.808Z,10.50
2022-10-30T03:41:57.735Z,9.90
2022-10-30T03:44:25.487Z,9.80
2022-10-30T03:46:53.270Z,9.50
2022-10-30T03:49:22.396Z,9.80
2022-10-30T03:51:50.185Z,9.80
2022-10-30T03:54:18.402Z,9.70
2022-10-30T03:56:46.296Z,9.80
2022-10-30T04:03:02.320Z,9.70
2022-10-30T04:05:32.602Z,9.50
2022-10-30T04:08:02.036Z,9.30
2022-10-30T04:10:29.941Z,9.50
2022-10-30T04:13:01.083Z,9.30
2022-10-30T04:15:28.894Z,9.20
2022-10-30T04:17:57.089Z,9.00
2022-10-30T04:20:25.586Z,9.00
2022-10-30T04:22:58.385Z,9.00
2022-10-30T04:25:26.540Z,8.90
2022-10-30T04:27:54.685Z,9.00
2022-10-30T04:30:24.062Z,8.90
2022-10-30T04:32:52.689Z,9.10
2022-10-30T04:35:45.141Z,9.30
2022-10-30T04:49:15.883Z,9.20
2022-10-30T04:52:17.612Z,9.10
2022-10-30T04:54:45.487Z,9.10
2022-10-30T04:57:13.327Z,9.30
2022-10-30T04:59:41.172Z,9.20
2022-10-30T05:02:10.752Z,9.00
2022-10-30T05:07:22.668Z,9.20
2022-10-30T05:17:18.676Z,9.40
2022-10-30T05:19:46.503Z,9.20
2022-10-30T05:22:14.321Z,9.10
2022-10-30T05:24:42.153Z,9.10
2022-10-30T05:27:09.953Z,8.90
2022-10-30T05:29:37.757Z,8.70
2022-10-30T05:32:06.080Z,8.70
2022-10-30T05:34:35.308Z,8.40
2022-10-30T05:37:03.167Z,8.60
2022-10-30T05:39:31.102Z,8.70
2022-10-30T05:41:58.901Z,8.80
2022-10-30T05:44:40.799Z,9.00
2022-10-30T05:47:14.697Z,9.30
2022-10-30T05:49:43.962Z,8.80
2022-10-30T05:52:11.806Z,8.70
2022-10-30T05:54:39.710Z,8.60
2022-10-30T05:57:07.517Z,8.70
2022-10-30T05:59:35.501Z,8.70
2022-10-30T06:02:03.466Z,8.60
2022-10-30T06:04:31.379Z,8.70
2022-10-30T06:07:00.586Z,8.60
2022-10-30T06:09:28.415Z,9.00
2022-10-30T06:11:56.316Z,9.00
2022-10-30T06:14:24.293Z,8.90
2022-10-30T06:16:52.269Z,8.90
2022-10-30T06:19:20.122Z,8.80
2022-10-30T06:21:48.021Z,9.00
2022-10-30T06:24:17.362Z,9.00
2022-10-30T06:26:45.251Z,9.10
2022-10-30T06:29:13.126Z,9.00
2022-10-30T06:31:41.118Z,8.80
2022-10-30T06:34:09.017Z,9.00
2022-10-30T06:36:36.942Z,9.20
2022-10-30T06:39:05.024Z,9.30
2022-10-30T06:41:34.792Z,9.50
2022-10-30T06:44:02.770Z,9.40
2022-10-30T06:46:33.584Z,9.50
2022-10-30T06:49:02.038Z,9.40
2022-10-30T06:51:30.006Z,9.50
2022-10-30T06:53:57.879Z,9.30
2022-10-30T06:56:25.805Z,9.50
2022-10-30T06:58:55.131Z,9.80
2022-10-30T07:01:23.172Z,10.10
2022-10-30T07:03:51.151Z,10.00
2022-10-30T07:06:19.029Z,10.00
2022-10-30T07:08:47.744Z,10.20
2022-10-30T07:11:15.622Z,10.50
2022-10-30T07:13:43.535Z,11.00
2022-10-30T07:16:12.790Z,11.80
2022-10-30T07:18:40.632Z,11.50
2022-10-30T07:21:08.716Z,11.40
2022-10-30T07:23:36.720Z,11.50
2022-10-30T07:26:04.710Z,11.70
2022-10-30T07:28:32.564Z,11.70
2022-10-30T07:31:00.591Z,12.10
2022-10-30T07:33:29.900Z,12.50
2022-10-30T07:35:57.759Z,13.00
2022-10-30T07:38:25.659Z,13.40
2022-10-30T07:40:54.081Z,13.90
2022-10-30T07:43:21.975Z,13.90
2022-10-30T07:45:49.815Z,14.40
2022-10-30T07:48:17.693Z,15.00
2022-10-30T07:50:46.898Z,15.40
2022-10-30T07:53:14.902Z,15.40
2022-10-30T07:55:43.477Z,15.60
2022-10-30T07:58:11.326Z,15.70
2022-10-30T08:00:39.289Z,15.70
2022-10-30T08:03:07.298Z,15.80
2022-10-30T08:05:35.386Z,16.20
2022-10-30T08:08:04.791Z,16.50
2022-10-30T08:10:32.605Z,16.70
2022-10-30T08:13:00.445Z,16.80
2022-10-30T08:15:28.288Z,17.20
2022-10-30T08:17:56.468Z,16.70
2022-10-30T08:20:25.089Z,16.80
2022-10-30T08:22:53.473Z,17.60
2022-10-30T08:25:24.208Z,17.70
2022-10-30T08:27:53.437Z,17.30
2022-10-30T08:30:21.333Z,17.50
2022-10-30T08:32:49.251Z,18.10
2022-10-30T08:35:20.065Z,18.60
2022-10-30T08:37:48.137Z,18.50
2022-10-30T08:40:16.043Z,18.80
2022-10-30T08:42:50.890Z,19.00
2022-10-30T08:45:18.746Z,19.30
2022-10-30T08:47:46.589Z,19.80
2022-10-30T08:50:14.604Z,19.20
2022-10-30T08:52:42.518Z,19.40
2022-10-30T08:55:10.618Z,19.60
2022-10-30T08:57:38.554Z,19.80
2022-10-30T09:00:09.010Z,20.50
2022-10-30T09:02:39.342Z,20.80
2022-10-30T09:05:07.689Z,20.80
2022-10-30T09:07:35.530Z,21.30
2022-10-30T09:10:03.372Z,20.90
2022-10-30T09:12:31.227Z,21.50
2022-10-30T09:14:59.068Z,21.50
2022-10-30T09:17:28.281Z,21.90
2022-10-30T09:19:56.308Z,22.10
2022-10-30T09:22:24.248Z,22.50
2022-10-30T09:24:52.157Z,22.50
2022-10-30T09:27:20.137Z,23.00
2022-10-30T09:29:48.026Z,23.00
2022-10-30T09:32:15.967Z,23.10
2022-10-30T09:34:45.294Z,23.30
2022-10-30T09:37:13.219Z,23.70
2022-10-30T09:39:41.201Z,23.60
2022-10-30T09:42:27.430Z,23.50
2022-10-30T09:45:27.276Z,23.70
2022-10-30T09:47:52.746Z,23.90
2022-10-30T09:50:26.437Z,24.10
2022-10-30T09:53:01.223Z,24.20
2022-10-30T09:55:33.417Z,24.40
2022-10-30T09:58:06.459Z,24.40
2022-10-30T10:00:37.924Z,24.70
2022-10-30T10:03:15.235Z,24.80
2022-10-30T10:05:47.126Z,24.30
2022-10-30T10:08:16.918Z,24.30
2022-10-30T10:10:45.479Z,24.80
2022-10-30T10:13:22.783Z,25.10
2022-10-30T10:15:51.747Z,25.30
2022-10-30T10:18:24.843Z,25.50
2022-10-30T10:20:54.905Z,25.90
2022-10-30T10:23:34.137Z,26.00
2022-10-30T10:26:03.725Z,26.10
2022-10-30T10:28:44.288Z,26.30
2022-10-30T10:31:18.139Z,26.10
2022-10-30T10:33:57.688Z,26.00
2022-10-30T10:36:32.861Z,25.90
2022-10-30T10:39:07.440Z,26.00
2022-10-30T10:41:56.354Z,26.00
2022-10-30T10:44:30.889Z,25.50
2022-10-30T10:47:07.422Z,26.00
2022-10-30T10:49:48.523Z,26.00
2022-10-30T10:52:18.806Z,26.20
2022-10-30T10:54:47.320Z,25.80
2022-10-30T10:57:18.314Z,26.00
2022-10-30T10:59:48.043Z,26.20
2022-10-30T11:02:29.963Z,26.20
2022-10-30T11:05:01.099Z,26.30
2022-10-30T11:07:32.963Z,26.00
2022-10-30T11:10:00.939Z,26.10
2022-10-30T11:12:33.647Z,26.40
2022-10-30T11:15:08.369Z,26.70
2022-10-30T11:17:39.665Z,26.60
2022-10-30T11:20:15.504Z,26.80
2022-10-30T11:22:47.557Z,26.70
2022-10-30T11:25:26.796Z,26.60
2022-10-30T11:27:59.368Z,26.70
2022-10-30T11:30:29.068Z,26.80
2022-10-30T11:32:57.600Z,26.60
2022-10-30T11:35:25.752Z,26.50
2022-10-30T11:38:13.286Z,26.80
2022-10-30T11:40:41.638Z,27.00
2022-10-30T11:43:09.706Z,27.10
2022-10-30T11:45:38.901Z,26.80
2022-10-30T11:48:14.331Z,27.00
2022-10-30T11:50:42.561Z,26.90
2022-10-30T11:53:14.216Z,27.10
2022-10-30T11:55:46.414Z,27.10
2022-10-30T11:58:24.034Z,27.20
2022-10-30T12:01:00.242Z,27.10
2022-10-30T12:03:29.862Z,27.10
2022-10-30T12:06:09.010Z,27.20
2022-10-30T12:08:38.404Z,27.00
2022-10-30T12:11:06.690Z,27.10
2022-10-30T12:13:38.434Z,27.10
2022-10-30T12:16:11.556Z,26.90
2022-10-30T12:18:39.870Z,26.60
2022-10-30T12:21:08.944Z,26.70
2022-10-30T12:23:38.151Z,26.60
2022-10-30T12:26:10.444Z,26.60
2022-10-30T12:28:38.407Z,26.90
2022-10-30T12:31:10.458Z,27.00
2022-10-30T12:33:42.383Z,27.10
2022-10-30T12:36:12.185Z,26.90
2022-10-30T12:38:43.527Z,26.90
2022-10-30T12:41:15.401Z,26.80
2022-10-30T12:43:43.785Z,26.80
2022-10-30T12:46:21.108Z,26.80
2022-10-30T12:48:50.540Z,27.00
2022-10-30T12:51:24.949Z,27.00
2022-10-30T12:53:58.531Z,26.90
2022-10-30T12:56:27.961Z,26.90
2022-10-30T12:58:58.682Z,26.90
2022-10-30T13:01:37.134Z,26.80
2022-10-30T13:04:08.628Z,27.00
2022-10-30T13:06:38.470Z,27.10
2022-10-30T13:09:12.517Z,26.90
2022-10-30T13:11:43.318Z,27.10
2022-10-30T13:14:14.506Z,26.70
2022-10-30T13:16:42.396Z,26.70
2022-10-30T13:19:11.096Z,26.60
2022-10-30T13:21:41.041Z,26.40
2022-10-30T13:24:12.885Z,26.50
2022-10-30T13:26:42.140Z,26.30
2022-10-30T13:29:21.276Z,26.40
2022-10-30T13:31:57.972Z,26.10
2022-10-30T13:34:31.391Z,26.20
2022-10-30T13:37:01.672Z,26.30
2022-10-30T13:39:32.334Z,26.50
2022-10-30T13:42:06.698Z,26.40
2022-10-30T13:44:39.585Z,26.30
2022-10-30T13:47:13.782Z,26.10
2022-10-30T13:49:49.633Z,26.00
2022-10-30T13:52:18.146Z,26.10
2022-10-30T13:54:55.909Z,25.70
2022-10-30T13:57:27.679Z,25.30
2022-10-30T14:00:00.704Z,24.80
2022-10-30T14:02:40.712Z,24.60
2022-10-30T14:05:16.174Z,24.90
2022-10-30T14:07:46.145Z,25.10
2022-10-30T14:10:17.033Z,25.10
2022-10-30T14:12:52.287Z,25.10
2022-10-30T14:15:33.037Z,25.00
2022-10-30T14:18:37.306Z,24.70
2022-10-30T14:21:33.031Z,24.50
2022-10-30T14:24:03.821Z,24.40
2022-10-30T14:26:33.046Z,24.50
2022-10-30T14:29:00.874Z,24.40
2022-10-30T14:31:35.843Z,24.30
2022-10-30T14:34:03.983Z,24.30
2022-10-30T14:36:50.094Z,24.30
2022-10-30T14:39:28.387Z,24.10
2022-10-30T14:42:01.488Z,24.00
2022-10-30T14:44:42.047Z,24.00
2022-10-30T14:47:34.454Z,23.90
2022-10-30T14:50:03.161Z,23.80
2022-10-30T14:52:38.174Z,23.80
2022-10-30T14:55:19.870Z,23.80
2022-10-30T14:57:52.909Z,23.60
2022-10-30T15:00:31.197Z,23.50
2022-10-30T15:02:59.304Z,23.60
2022-10-30T15:05:39.039Z,23.70
2022-10-30T15:08:12.146Z,23.50
2022-10-30T15:10:50.935Z,23.30
2022-10-30T15:13:20.317Z,23.20
2022-10-30T15:15:58.192Z,23.00
2022-10-30T15:18:30.313Z,22.90
2022-10-30T15:21:05.848Z,22.70
2022-10-30T15:23:34.679Z,22.60
2022-10-30T15:26:09.469Z,22.50
2022-10-30T15:28:39.502Z,22.50
2022-10-30T15:31:08.254Z,22.50
2022-10-30T15:33:37.667Z,22.50
2022-10-30T15:36:06.169Z,22.40
2022-10-30T15:38:34.117Z,22.30
2022-10-30T15:41:03.206Z,22.20
2022-10-30T15:43:32.517Z,22.10
2022-10-30T15:46:01.932Z,21.90
2022-10-30T15:48:31.114Z,21.80
2022-10-30T15:51:01.437Z,21.70
2022-10-30T15:53:35.122Z,21.50
2022-10-30T15:56:03.066Z,21.40
2022-10-30T15:58:37.066Z,21.30
2022-10-30T16:01:06.468Z,21.30
2022-10-30T16:03:34.471Z,21.00
2022-10-30T16:06:07.388Z,20.80
2022-10-30T16:08:43.667Z,20.80
2022-10-30T16:11:11.488Z,20.50
2022-10-30T16:13:39.387Z,20.40
2022-10-30T16:16:11.338Z,20.20
2022-10-30T16:18:39.227Z,20.10
2022-10-30T16:21:08.585Z,20.00
2022-10-30T16:23:39.695Z,19.80
2022-10-30T16:26:07.692Z,19.60
2022-10-30T16:28:37.536Z,19.50
2022-10-30T16:31:09.994Z,19.50
2022-10-30T16:33:38.055Z,19.30
2022-10-30T16:36:06.209Z,19.20
2022-10-30T16:38:39.036Z,18.90
2022-10-30T16:41:07.396Z,18.90
2022-10-30T16:43:35.494Z,18.90
2022-10-30T16:46:36.127Z,18.90
2022-10-30T16:49:05.978Z,18.70
2022-10-30T16:51:33.796Z,18.50
2022-10-30T16:54:01.648Z,18.40
2022-10-30T16:56:30.337Z,18.40
2022-10-30T16:58:59.873Z,18.40
2022-10-30T17:01:29.413Z,18.10
2022-10-30T17:03:57.438Z,17.80
2022-10-30T17:06:27.399Z,17.80
2022-10-30T17:08:55.835Z,17.70
2022-10-30T17:11:35.251Z,17.80
2022-10-30T17:14:04.011Z,17.80
2022-10-30T17:16:33.776Z,17.80
2022-10-30T17:19:02.532Z,17.50
2022-10-30T17:21:31.238Z,17.60
2022-10-30T17:24:00.163Z,17.50
2022-10-30T17:26:28.577Z,17.50
2022-10-30T17:28:56.504Z,17.20
2022-10-30T17:31:28.173Z,17.10
2022-10-30T17:34:17.123Z,17.10
2022-10-30T17:36:45.106Z,17.10
2022-10-30T17:39:12.955Z,17.30
2022-10-30T17:41:40.894Z,16.90
2022-10-30T17:44:08.824Z,16.80
2022-10-30T17:46:36.639Z,16.80
2022-10-30T17:49:04.452Z,16.70
2022-10-30T17:51:33.714Z,16.50
2022-10-30T17:54:01.578Z,16.50
2022-10-30T17:56:29.850Z,16.40
2022-10-30T17:58:57.663Z,16.40
2022-10-30T18:01:26.312Z,16.50
2022-10-30T18:03:55.475Z,16.50
2022-10-30T18:06:24.192Z,16.60
2022-10-30T18:08:53.483Z,16.30
2022-10-30T18:11:22.658Z,16.30
2022-10-30T18:13:51.232Z,16.10
2022-10-30T18:16:19.373Z,16.20
2022-10-30T18:18:47.347Z,16.10
2022-10-30T18:21:15.846Z,16.00
2022-10-30T18:23:59.014Z,16.10
2022-10-30T18:26:28.298Z,16.00
2022-10-30T18:28:56.140Z,15.90
2022-10-30T18:31:24.705Z,16.10
2022-10-30T18:33:52.552Z,15.90
2022-10-30T18:36:21.206Z,15.60
2022-10-30T18:38:49.190Z,15.50
2022-10-30T18:41:18.828Z,15.50
2022-10-30T18:43:48.094Z,15.50
2022-10-30T18:46:16.160Z,15.40
2022-10-30T18:48:44.021Z,15.30
2022-10-30T18:51:15.606Z,15.00
2022-10-30T18:53:51.004Z,15.00
2022-10-30T18:56:19.480Z,14.90
2022-10-30T18:58:48.641Z,14.70
2022-10-30T19:01:16.817Z,14.70
2022-10-30T19:03:44.837Z,14.70
2022-10-30T19:06:13.420Z,14.80
2022-10-30T19:08:41.301Z,15.00
2022-10-30T19:11:10.818Z,15.00
2022-10-30T19:13:40.161Z,14.90
2022-10-30T19:16:11.077Z,14.90
2022-10-30T19:18:38.998Z,14.80
2022-10-30T19:21:10.324Z,14.90
2022-10-30T19:23:42.443Z,14.60
2022-10-30T19:28:40.343Z,14.60
2022-10-30T19:31:10.726Z,14.50
2022-10-30T19:33:38.589Z,14.50
2022-10-30T19:36:06.978Z,14.30
2022-10-30T19:38:34.853Z,14.10
2022-10-30T19:41:02.907Z,14.20
2022-10-30T19:43:30.756Z,14.20
2022-10-30T19:45:58.587Z,14.10
2022-10-30T19:51:15.725Z,13.90
2022-10-30T19:53:43.668Z,13.90
2022-10-30T19:56:11.844Z,13.80
2022-10-30T19:58:39.915Z,13.80
2022-10-30T20:01:07.809Z,13.80
2022-10-30T20:03:37.013Z,13.70
2022-10-30T20:06:05.140Z,13.70
2022-10-30T20:08:33.015Z,13.70
2022-10-30T20:11:01.910Z,13.70
2022-10-30T20:13:30.029Z,13.70
2022-10-30T20:15:59.258Z,13.70
2022-10-30T20:18:30.145Z,13.60
2022-10-30T20:21:00.161Z,13.50
2022-10-30T20:23:28.056Z,13.60
2022-10-30T20:25:58.726Z,13.30
2022-10-30T20:28:28.425Z,13.30
2022-10-30T20:30:56.363Z,13.20
2022-10-30T20:33:25.432Z,13.20
2022-10-30T20:35:54.545Z,13.20
2022-10-30T20:38:26.082Z,13.00
2022-10-30T20:40:54.158Z,12.90
2022-10-30T20:43:22.866Z,13.00
2022-10-30T20:45:50.843Z,12.90
2022-10-30T20:48:18.659Z,13.20
2022-10-30T20:50:50.481Z,13.10
2022-10-30T20:53:21.319Z,12.70
2022-10-30T20:55:50.547Z,12.80
2022-10-30T20:58:21.547Z,13.00
2022-10-30T21:00:54.397Z,12.70
2022-10-30T21:03:22.267Z,12.70
2022-10-30T21:05:55.240Z,12.70
2022-10-30T21:08:23.071Z,12.70
2022-10-30T21:10:52.312Z,12.60
2022-10-30T21:13:20.162Z,12.80
2022-10-30T21:15:48.001Z,12.90
2022-10-30T21:18:15.853Z,12.60
2022-10-30T21:20:43.663Z,12.50
2022-10-30T21:23:11.467Z,12.40
2022-10-30T21:25:39.307Z,12.40
2022-10-30T21:28:08.650Z,12.30
2022-10-30T21:30:36.461Z,12.30
2022-10-30T21:33:05.510Z,12.20
2022-10-30T21:35:33.505Z,12.20
2022-10-30T21:38:02.417Z,12.20
2022-10-30T21:40:30.243Z,12.30
2022-10-30T21:43:01.403Z,12.00
2022-10-30T21:45:33.573Z,12.20
2022-10-30T21:48:01.512Z,12.30
2022-10-30T21:50:29.416Z,12.30
2022-10-30T21:52:57.762Z,12.10
2022-10-30T21:55:25.924Z,12.10
2022-10-30T21:58:11.523Z,12.00
2022-10-30T22:00:40.763Z,12.00
2022-10-30T22:03:10.806Z,12.10
2022-10-30T22:05:39.041Z,11.80
2022-10-30T22:08:07.145Z,12.00
2022-10-30T22:10:36.697Z,12.00
2022-10-30T22:13:04.810Z,12.00
2022-10-30T22:15:32.789Z,12.00
2022-10-30T22:18:02.591Z,11.90
2022-10-30T22:20:30.682Z,11.70
2022-10-30T22:23:04.023Z,11.70
2022-10-30T22:25:31.991Z,11.70
2022-10-30T22:28:02.278Z,11.70
2022-10-30T22:30:30.559Z,11.60
2022-10-30T22:32:58.920Z,11.50
2022-10-30T22:35:28.384Z,11.40
2022-10-30T22:37:58.602Z,11.50
2022-10-30T22:40:26.405Z,11.60
2022-10-30T22:42:54.434Z,11.70
2022-10-30T22:45:23.957Z,11.60
2022-10-30T22:47:51.854Z,11.60
2022-10-30T22:50:19.913Z,11.60
2022-10-30T22:52:49.110Z,11.70
2022-10-30T22:55:17.104Z,11.70
2022-10-30T22:57:44.956Z,11.70
2022-10-30T23:00:18.202Z,11.70
2022-10-30T23:02:47.306Z,11.70
2022-10-30T23:05:15.337Z,11.40
2022-10-30T23:07:43.432Z,11.40
2022-10-30T23:10:12.765Z,11.50
2022-10-30T23:12:40.635Z,11.60
2022-10-30T23:15:10.307Z,11.10
2022-10-30T23:17:38.396Z,10.90
2022-10-30T23:20:13.554Z,10.90
2022-10-30T23:22:41.515Z,10.90
2022-10-30T23:25:11.109Z,11.00
2022-10-30T23:27:41.534Z,10.90
2022-10-30T23:30:11.243Z,10.80
2022-10-30T23:32:39.265Z,10.70
2022-10-30T23:35:13.959Z,10.80
2022-10-30T23:37:41.942Z,10.80
2022-10-30T23:40:11.457Z,10.90
2022-10-30T23:42:40.819Z,11.00
2022-10-30T23:45:09.402Z,11.00
2022-10-30T23:47:41.263Z,10.80
2022-10-30T23:50:10.953Z,10.80
2022-10-30T23:52:38.945Z,10.80
2022-10-30T23:55:08.071Z,10.90
2022-10-30T23:57:35.879Z,11.10
